Archival Weather

Prince Abdulmajeed Bin Abdula

Prince Abdulmajeed Bin Abdula, Saudi Arabia (OEAO)

Report from: Monday, May 23, 2022 6:00 PM UTC
Current time: Tuesday, August 16, 2022 7:38 AM UTC

Current weather
Weather history
Weather forecast

Temperature32.0°C (89.6°F)
Heat index29.8°C (85.6°F)
Dew point-5.0°C (23.0°F)
Winds 18 kts (9.3 m/s, 20.7 mph) North (360°)
Clouds Sky clear
Altimeter29.83 in.Hg (1010 mB)
Relative humidity9 %
Density altitude2,123 ft. (647 m)
Remarks Ceiling and visibility OK
No significant changes expected in the next two hours
Flight conditions Visual Meteorological Conditions
Raw dataOEAO 231800Z 36018KT CAVOK 32/M05 Q1010 NOSIG
An error has occurred. This application may no longer respond until reloaded. Reload 🗙